East Millbury, Massachusetts
Current Conditions -  °F | °C
As of 2:04 PM on Thursday 23 Oct 2014 (Local Time) from KORH Reporting Station
Light Rain Light Rain  
Wind Chill: 43°   Ceiling: 400
Heat Index: 49°   Visibility: 9mi
Dew Point: 48°   Wind: 17mph
Humidity: 97%   Direction: 20°NNE
Pressure: 29.63"   Gusts: 26mph
Location:  42.1926°N, 71.7739°W
Report Text: KORH 231804Z 02015G23KT 9SM -RA OVC004 09/09 A2963 RMK AO2 CIG 003V008 P0001 T00940089
Loading
Personal Weather Stations






























Interactive Weather Map
Tropical Storm Tracking
New forecast layout! Learn more

10-Day Weather Forecast

Advertisements
Track Severe Weather on mobile